Time;durP1;ratioP1;P1;durP2;ratioP2;P2;SDS_P1;SDS_P2;PMS_P1;PMS_P2;Temp;Humidity;BMP_temperature;BMP_pressure;BME280_temperature;BME280_humidity;BME280_pressure;Samples;Min_cycle;Max_cycle;Signal;HPM_P1;HPM_P2
2022/05/14 00:00:29;;;;;;;11.07;4.43;;;;;;;11.85;68.69;99899.16;5110702;28;20376;-84
2022/05/14 00:02:55;;;;;;;6.63;4.07;;;;;;;11.71;69.51;99884.09;5111743;28;20027;-84
2022/05/14 00:05:23;;;;;;;7.18;4.25;;;;;;;11.73;69.89;99893.56;5111846;28;20047;-83
2022/05/14 00:07:50;;;;;;;7.60;4.50;;;;;;;11.67;69.97;99898.19;5111547;28;20430;-84
2022/05/14 00:10:17;;;;;;;7.65;4.10;;;;;;;11.61;70.55;99899.34;5113204;28;20054;-84
2022/05/14 00:15:27;;;;;;;5.95;4.15;;;;;;;11.44;71.51;99886.25;5115722;28;20042;-84
2022/05/14 00:17:54;;;;;;;8.05;4.10;;;;;;;11.45;71.74;99890.53;5113989;28;20032;-84
2022/05/14 00:20:23;;;;;;;8.80;4.47;;;;;;;11.39;72.21;99898.66;5114158;28;20533;-84
2022/05/14 00:22:50;;;;;;;8.63;4.38;;;;;;;11.33;72.76;99891.94;5115204;28;20111;-84
2022/05/14 00:25:15;;;;;;;6.47;4.20;;;;;;;11.22;73.57;99886.38;5113970;28;20019;-84
2022/05/14 00:27:42;;;;;;;7.40;4.07;;;;;;;11.24;73.57;99895.81;5115520;28;20031;-84
2022/05/14 00:30:10;;;;;;;10.57;4.28;;;;;;;11.21;73.68;99895.97;5115210;28;20135;-84
2022/05/14 00:32:37;;;;;;;6.50;4.28;;;;;;;11.17;74.42;99906.63;5113970;28;20384;-84
2022/05/14 00:35:04;;;;;;;5.55;4.10;;;;;;;11.15;74.19;99909.28;5113652;28;20110;-84
2022/05/14 00:37:30;;;;;;;8.57;4.20;;;;;;;10.98;74.29;99894.38;5113772;28;20051;-84
2022/05/14 00:39:55;;;;;;;6.25;3.90;;;;;;;10.92;74.80;99888.63;5113690;28;20040;-84
2022/05/14 00:42:21;;;;;;;11.05;4.82;;;;;;;10.96;75.17;99916.22;5114030;28;20045;-84
2022/05/14 00:44:46;;;;;;;6.40;4.45;;;;;;;10.94;75.55;99905.00;5113924;28;20349;-84
2022/05/14 00:47:16;;;;;;;6.38;4.25;;;;;;;10.86;75.63;99902.75;5114918;28;20035;-84
2022/05/14 00:49:42;;;;;;;10.30;4.85;;;;;;;10.79;76.32;99903.94;5112331;28;20024;-84
2022/05/14 00:52:16;;;;;;;6.80;4.50;;;;;;;10.82;76.56;99914.22;5112164;28;20388;-84
2022/05/14 00:54:48;;;;;;;8.55;4.90;;;;;;;10.73;77.31;99912.00;5113836;28;20054;-84
2022/05/14 00:57:17;;;;;;;7.97;4.78;;;;;;;10.57;77.54;99893.56;5112208;28;20114;-83
2022/05/14 00:59:43;;;;;;;6.75;4.60;;;;;;;10.68;77.54;99911.38;5112220;28;20054;-84
2022/05/14 01:02:08;;;;;;;7.97;4.78;;;;;;;10.60;77.84;99908.22;5112063;28;20066;-83
2022/05/14 01:04:34;;;;;;;9.45;4.63;;;;;;;10.52;78.10;99900.75;5112232;28;20087;-84
2022/05/14 01:07:08;;;;;;;7.97;4.47;;;;;;;10.53;78.54;99912.84;5113161;28;20115;-84
2022/05/14 01:09:39;;;;;;;9.88;4.93;;;;;;;10.43;78.97;99909.78;5113540;28;20028;-84
2022/05/14 01:12:05;;;;;;;11.65;5.18;;;;;;;10.29;79.52;99896.50;5111872;28;20042;-85
2022/05/14 01:14:31;;;;;;;6.28;4.22;;;;;;;10.25;79.71;99892.34;5090279;28;20520;-84
2022/05/14 01:16:56;;;;;;;8.95;4.80;;;;;;;10.28;80.17;99901.75;5073118;28;20032;-85
2022/05/14 01:19:22;;;;;;;8.63;4.25;;;;;;;10.19;80.15;99893.38;5073355;28;20032;-84
2022/05/14 01:22:08;;;;;;;8.43;4.88;;;;;;;10.30;80.46;99905.16;5073503;28;20024;-84
2022/05/14 01:27:42;;;;;;;8.02;4.88;;;;;;;10.20;80.88;99907.28;5090523;28;20113;-84
2022/05/14 01:30:08;;;;;;;9.52;5.22;;;;;;;10.18;81.05;99904.72;5089942;28;20545;-84
2022/05/14 01:32:34;;;;;;;9.80;4.97;;;;;;;9.96;81.26;99864.88;5073056;28;20407;-85
2022/05/14 01:34:59;;;;;;;11.63;5.55;;;;;;;10.07;81.67;99882.63;5072849;28;20044;-85
2022/05/14 01:37:25;;;;;;;7.38;4.75;;;;;;;10.08;81.62;99876.53;5073080;28;20581;-85
2022/05/14 01:39:52;;;;;;;9.15;5.50;;;;;;;10.10;82.06;99890.31;5072872;28;20039;-85
2022/05/14 01:42:18;;;;;;;8.27;5.60;;;;;;;10.01;82.09;99875.94;5090006;28;20485;-85
2022/05/14 01:44:43;;;;;;;11.70;5.13;;;;;;;10.09;82.23;99883.44;5077225;28;20032;-85
2022/05/14 01:47:10;;;;;;;8.72;5.64;;;;;;;10.07;82.62;99888.72;5091046;28;1216292;-85
2022/05/14 01:49:36;;;;;;;9.35;5.85;;;;;;;10.02;82.56;99874.16;5112370;28;20556;-85
2022/05/14 01:52:02;;;;;;;8.15;5.60;;;;;;;9.95;82.87;99881.41;5113388;27;20110;-85
2022/05/14 01:54:27;;;;;;;11.05;6.03;;;;;;;9.94;83.59;99877.06;5112394;28;20020;-85
2022/05/14 01:56:53;;;;;;;9.43;6.18;;;;;;;9.89;83.69;99872.06;5112106;28;20028;-85
2022/05/14 01:59:18;;;;;;;12.68;6.00;;;;;;;9.85;83.78;99875.69;5112626;28;20020;-85
2022/05/14 02:01:44;;;;;;;9.18;5.78;;;;;;;9.90;84.32;99892.00;5112432;28;20030;-83
2022/05/14 02:04:12;;;;;;;9.73;6.32;;;;;;;9.85;84.54;99882.66;5113386;28;20020;-85
2022/05/14 02:06:39;;;;;;;9.48;5.80;;;;;;;9.86;84.27;99885.22;5112053;28;20043;-85
2022/05/14 02:09:08;;;;;;;10.93;5.60;;;;;;;9.87;84.65;99888.66;5111754;28;20126;-85
2022/05/14 02:11:34;;;;;;;10.38;6.20;;;;;;;9.85;85.14;99888.69;5111887;28;20024;-85
2022/05/14 02:14:00;;;;;;;10.23;6.38;;;;;;;9.79;85.19;99885.50;5111829;28;20026;-85
2022/05/14 02:16:26;;;;;;;7.65;5.93;;;;;;;9.71;85.75;99878.00;5113255;28;20031;-85
2022/05/14 02:18:51;;;;;;;11.48;5.65;;;;;;;9.57;86.19;99875.97;5111886;28;20028;-85
2022/05/14 02:21:24;;;;;;;9.88;6.15;;;;;;;9.57;86.66;99875.13;5111562;28;20020;-84
2022/05/14 02:23:53;;;;;;;7.68;5.80;;;;;;;9.62;86.51;99893.97;5113053;27;20080;-85
2022/05/14 02:26:19;;;;;;;9.77;5.90;;;;;;;9.60;86.90;99886.22;5112904;28;20089;-85
2022/05/14 02:28:45;;;;;;;13.05;6.20;;;;;;;9.48;87.01;99868.47;5111695;28;20091;-85
2022/05/14 02:31:10;;;;;;;8.25;5.65;;;;;;;9.55;87.10;99879.50;5111013;28;20540;-85
2022/05/14 02:33:37;;;;;;;10.80;6.20;;;;;;;9.48;87.37;99874.56;5111115;28;20085;-85
2022/05/14 02:36:04;;;;;;;7.95;5.82;;;;;;;9.50;87.30;99877.09;5111164;28;20032;-85
2022/05/14 02:38:31;;;;;;;10.50;6.07;;;;;;;9.35;87.37;99852.50;5112701;28;20039;-85
2022/05/14 02:40:57;;;;;;;13.63;6.60;;;;;;;9.30;87.75;99844.06;5111396;28;20114;-85
2022/05/14 02:43:23;;;;;;;10.35;6.30;;;;;;;9.42;88.22;99855.72;5113074;28;20106;-85
2022/05/14 02:45:49;;;;;;;8.40;5.70;;;;;;;9.31;88.68;99850.94;5089659;28;20558;-85
2022/05/14 02:48:14;;;;;;;9.75;5.82;;;;;;;9.37;88.95;99855.06;5072323;28;20044;-85
2022/05/14 02:50:40;;;;;;;9.27;6.25;;;;;;;9.37;89.52;99855.06;5072756;28;20118;-85
2022/05/14 02:53:06;;;;;;;8.32;5.85;;;;;;;9.30;89.89;99845.81;5072438;28;20023;-86
2022/05/14 02:55:31;;;;;;;13.57;6.55;;;;;;;9.33;89.89;99856.94;5072555;28;20059;-85
2022/05/14 02:57:57;;;;;;;9.40;6.18;;;;;;;9.32;89.77;99854.41;5072288;28;20032;-85
2022/05/14 03:00:23;;;;;;;7.97;5.88;;;;;;;9.29;90.29;99857.97;5072534;28;20463;-85
2022/05/14 03:02:48;;;;;;;7.90;6.25;;;;;;;9.30;90.56;99858.81;5072588;28;20120;-85
2022/05/14 03:05:16;;;;;;;8.68;6.38;;;;;;;9.29;90.80;99857.13;5089584;28;20044;-85
2022/05/14 03:07:42;;;;;;;7.18;6.20;;;;;;;9.24;90.82;99852.94;5089445;28;20104;-85
2022/05/14 03:10:08;;;;;;;9.70;6.47;;;;;;;9.25;90.97;99859.81;5072520;28;20557;-84
2022/05/14 03:12:34;;;;;;;9.95;6.45;;;;;;;9.26;91.04;99868.47;5072664;28;20074;-85
2022/05/14 03:15:00;;;;;;;11.88;6.93;;;;;;;9.24;90.84;99854.69;5072383;28;20541;-85
2022/05/14 03:17:26;;;;;;;12.48;6.60;;;;;;;9.26;91.27;99871.06;5100801;28;20035;-85
2022/05/14 03:19:52;;;;;;;10.55;6.53;;;;;;;9.19;91.10;99867.03;5112235;28;20034;-85
2022/05/14 03:22:18;;;;;;;8.63;6.18;;;;;;;9.21;91.61;99867.78;5110551;28;20073;-84
2022/05/14 03:24:43;;;;;;;10.45;6.10;;;;;;;9.25;91.47;99864.19;5111042;28;20030;-85
2022/05/14 03:27:10;;;;;;;7.22;5.72;;;;;;;9.27;91.54;99872.78;5110788;28;20046;-85
2022/05/14 03:29:36;;;;;;;9.75;5.97;;;;;;;9.31;91.44;99871.72;5111236;28;20389;-84
2022/05/14 03:32:02;;;;;;;9.98;6.63;;;;;;;9.36;91.36;99868.97;5110665;28;20032;-85
2022/05/14 03:34:27;;;;;;;9.32;6.18;;;;;;;9.33;91.05;99851.75;5110826;28;20503;-85
2022/05/14 03:36:53;;;;;;;9.20;6.38;;;;;;;9.36;91.43;99851.63;5110571;28;20032;-85
2022/05/14 03:39:19;;;;;;;15.80;6.45;;;;;;;9.50;91.27;99870.13;5110744;28;20393;-85
2022/05/14 03:41:45;;;;;;;13.32;6.78;;;;;;;9.54;91.14;99863.06;5111996;28;20040;-85
2022/05/14 03:44:11;;;;;;;11.18;6.50;;;;;;;9.57;91.35;99864.72;5111699;28;20027;-84
2022/05/14 03:46:37;;;;;;;8.32;6.22;;;;;;;9.64;91.00;99873.94;5114888;28;20020;-85
2022/05/14 03:49:03;;;;;;;8.82;6.70;;;;;;;9.69;90.76;99861.59;5114393;28;20047;-84
2022/05/14 03:51:29;;;;;;;10.52;6.47;;;;;;;9.82;90.47;99862.84;5114618;28;20023;-85
2022/05/14 03:53:55;;;;;;;8.18;6.05;;;;;;;9.98;89.58;99873.44;5092652;28;20044;-85
2022/05/14 03:56:20;;;;;;;10.35;6.32;;;;;;;10.15;88.75;99881.41;5075655;28;20508;-85
2022/05/14 03:58:46;;;;;;;10.40;6.38;;;;;;;10.26;88.06;99865.38;5076127;28;20079;-85
2022/05/14 04:01:12;;;;;;;9.60;6.15;;;;;;;10.44;87.82;99868.97;5075871;28;20059;-85
2022/05/14 04:03:38;;;;;;;10.50;6.60;;;;;;;10.73;86.86;99878.13;5093114;28;20040;-85
2022/05/14 04:06:05;;;;;;;10.27;6.30;;;;;;;11.06;85.86;99880.16;5092744;28;20540;-85
2022/05/14 04:08:31;;;;;;;10.50;6.20;;;;;;;11.42;84.62;99869.84;5075939;28;20067;-85
2022/05/14 04:10:56;;;;;;;9.23;6.40;;;;;;;11.88;82.89;99870.28;5075821;28;20511;-85
2022/05/14 04:13:22;;;;;;;10.27;6.13;;;;;;;12.55;80.04;99877.34;5092651;28;20119;-85
2022/05/14 04:15:48;;;;;;;11.32;6.13;;;;;;;13.50;75.24;99863.69;5075606;28;20031;-85
2022/05/14 04:18:14;;;;;;;9.32;5.72;;;;;;;14.38;70.02;99863.84;5075279;28;20058;-85
2022/05/14 04:20:40;;;;;;;8.13;5.13;;;;;;;14.95;67.10;99856.03;5092686;28;20593;-85
2022/05/14 04:23:07;;;;;;;12.82;5.40;;;;;;;15.26;65.63;99859.41;5075558;28;20028;-85
2022/05/14 04:25:33;;;;;;;8.48;4.93;;;;;;;15.33;64.46;99865.94;5104315;28;20130;-85
2022/05/14 04:27:59;;;;;;;10.10;4.82;;;;;;;15.51;62.41;99858.72;5115566;28;20123;-85
2022/05/14 04:30:25;;;;;;;7.40;3.97;;;;;;;15.64;61.71;99856.16;5115281;28;20077;-85
2022/05/14 04:32:51;;;;;;;6.50;4.30;;;;;;;15.97;60.12;99861.03;5114031;28;20054;-85
2022/05/14 04:35:17;;;;;;;9.75;4.70;;;;;;;16.36;59.00;99854.91;5113557;28;20015;-85
2022/05/14 04:37:42;;;;;;;6.20;4.32;;;;;;;17.08;56.12;99846.50;5113982;28;20465;-85
2022/05/14 04:40:10;;;;;;;8.63;4.03;;;;;;;18.02;52.60;99851.97;5113756;28;20019;-85
2022/05/14 04:42:38;;;;;;;7.65;4.15;;;;;;;18.77;49.67;99846.31;5113760;28;20495;-86
2022/05/14 04:45:06;;;;;;;8.50;4.18;;;;;;;19.10;48.87;99857.84;5113669;28;20020;-85
2022/05/14 04:47:31;;;;;;;5.93;4.22;;;;;;;18.94;49.02;99866.13;5113407;28;20047;-86
2022/05/14 04:49:57;;;;;;;6.50;4.47;;;;;;;18.57;48.31;99854.88;5115218;28;20027;-79
2022/05/14 04:52:22;;;;;;;10.13;4.47;;;;;;;18.47;48.42;99867.94;5114737;28;20074;-79
2022/05/14 04:54:47;;;;;;;6.93;4.10;;;;;;;18.25;49.24;99862.63;5114436;28;20111;-79
2022/05/14 04:57:13;;;;;;;5.85;4.22;;;;;;;18.30;48.94;99856.03;5113303;28;20039;-79
2022/05/14 04:59:39;;;;;;;6.90;4.20;;;;;;;18.90;47.96;99854.97;5114872;28;20024;-79
2022/05/14 05:04:48;;;;;;;10.07;4.10;;;;;;;20.83;42.36;99862.16;5114999;28;20038;-80
2022/05/14 05:07:14;;;;;;;7.40;3.97;;;;;;;20.76;42.15;99874.22;5114849;28;20055;-79
2022/05/14 05:09:39;;;;;;;6.13;4.05;;;;;;;20.31;43.03;99874.47;5114908;28;20023;-79
2022/05/14 05:12:05;;;;;;;7.05;3.80;;;;;;;19.99;43.87;99879.78;5114580;28;20031;-80
2022/05/14 05:14:31;;;;;;;9.20;4.35;;;;;;;19.82;44.21;99871.44;5114993;28;20028;-80
2022/05/14 05:16:57;;;;;;;8.93;4.20;;;;;;;20.01;44.46;99881.31;5114484;28;20365;-79
2022/05/14 05:19:23;;;;;;;6.68;3.25;;;;;;;20.48;43.03;99870.41;5114553;28;20028;-79
2022/05/14 05:21:49;;;;;;;6.55;4.07;;;;;;;20.78;42.32;99886.38;5114657;28;20023;-79
2022/05/14 05:24:15;;;;;;;7.97;3.80;;;;;;;21.11;40.69;99881.78;5114348;28;20024;-79
2022/05/14 05:26:41;;;;;;;6.45;3.55;;;;;;;20.24;41.84;99874.16;5114745;28;20027;-79
2022/05/14 05:29:06;;;;;;;5.80;3.92;;;;;;;19.97;43.47;99887.00;5114163;28;20037;-79
2022/05/14 05:31:34;;;;;;;7.05;3.53;;;;;;;20.20;43.91;99878.03;5114124;28;20061;-79
2022/05/14 05:33:59;;;;;;;4.97;3.63;;;;;;;20.23;43.57;99872.47;5114574;28;20026;-79
2022/05/14 05:36:25;;;;;;;5.40;3.53;;;;;;;20.74;42.67;99889.44;5113787;28;20027;-79
2022/05/14 05:38:51;;;;;;;6.10;3.47;;;;;;;20.58;42.55;99893.34;5114368;28;20028;-79
2022/05/14 05:41:18;;;;;;;11.07;3.85;;;;;;;20.58;42.59;99884.59;5114017;28;20492;-79
2022/05/14 05:43:43;;;;;;;7.32;3.38;;;;;;;20.92;41.81;99886.03;5114123;28;20064;-79
2022/05/14 05:46:09;;;;;;;8.35;3.55;;;;;;;20.34;42.50;99864.47;5113861;28;20528;-79
2022/05/14 05:48:35;;;;;;;5.95;3.40;;;;;;;19.78;44.07;99882.38;5114136;28;20373;-78
2022/05/14 05:51:00;;;;;;;5.03;3.30;;;;;;;19.23;45.00;99890.25;5114296;28;20035;-79
2022/05/14 05:56:46;;;;;;;9.18;3.47;;;;;;;18.75;46.46;99884.31;5113964;28;20077;-79
2022/05/14 05:58:55;;;;;;;7.75;3.63;;;;;;;18.59;47.96;99887.28;5113716;27;20085;-79
2022/05/14 06:01:20;;;;;;;4.18;3.47;;;;;;;18.72;48.30;99892.50;5113420;28;20418;-79
2022/05/14 06:03:48;;;;;;;7.30;3.63;;;;;;;20.03;46.34;99882.06;5113769;28;20030;-79
2022/05/14 06:06:14;;;;;;;5.75;2.90;;;;;;;20.82;43.74;99876.38;5113067;28;20045;-79
2022/05/14 06:08:39;;;;;;;5.30;3.60;;;;;;;20.56;43.67;99886.50;5113179;28;20027;-86
2022/05/14 06:11:05;;;;;;;6.03;2.90;;;;;;;20.64;44.01;99881.41;5113647;28;20023;-86
2022/05/14 06:13:30;;;;;;;6.30;3.00;;;;;;;20.72;43.56;99889.53;5112115;28;20031;-86
2022/05/14 06:15:56;;;;;;;7.10;3.10;;;;;;;21.39;43.35;99886.38;5070101;28;20115;-86
2022/05/14 06:18:21;;;;;;;5.15;2.70;;;;;;;23.03;39.54;99887.38;5069872;28;20044;-86
2022/05/14 06:20:47;;;;;;;6.63;3.00;;;;;;;23.77;37.58;99880.31;5070078;28;20036;-88
2022/05/14 06:23:14;;;;;;;6.07;2.90;;;;;;;24.62;35.64;99885.06;5069623;28;20029;-89
2022/05/14 06:25:39;;;;;;;4.72;2.97;;;;;;;23.85;35.95;99885.69;5069749;28;20511;-89
2022/05/14 06:28:05;;;;;;;6.18;3.10;;;;;;;23.69;36.85;99886.38;5069907;28;20068;-89
2022/05/14 06:30:32;;;;;;;10.60;3.13;;;;;;;24.34;36.12;99884.31;5069701;28;20410;-89
2022/05/14 06:33:02;;;;;;;7.13;3.05;;;;;;;25.21;34.65;99876.44;5053272;28;20028;-88
2022/05/14 06:35:27;;;;;;;;;;;;;;;26.56;32.94;99884.22;5053391;28;20032;-89
2022/05/14 06:37:53;;;;;;;7.32;2.90;;;;;;;27.68;30.81;99869.78;5069969;28;19916;-88
2022/05/14 06:40:18;;;;;;;6.97;2.90;;;;;;;28.88;28.73;99871.84;5052910;28;20062;-88
2022/05/14 06:42:43;;;;;;;5.03;2.53;;;;;;;30.05;27.40;99872.69;5053055;28;20033;-89
2022/05/14 06:45:09;;;;;;;4.13;2.40;;;;;;;30.90;25.75;99873.59;5053050;28;20119;-89
2022/05/14 06:47:35;;;;;;;3.78;2.53;;;;;;;31.73;25.10;99869.81;5097134;28;20089;-89
2022/05/14 06:50:00;;;;;;;6.70;2.67;;;;;;;32.22;23.97;99870.53;5111663;28;20396;-87
2022/05/14 06:52:26;;;;;;;5.57;2.50;;;;;;;32.23;23.88;99866.78;5111180;28;20418;-87
2022/05/14 06:54:54;;;;;;;5.75;2.80;;;;;;;32.26;23.67;99869.91;5111254;28;20055;-89
2022/05/14 06:57:20;;;;;;;5.18;2.70;;;;;;;32.13;23.76;99867.22;5111227;28;20016;-88
2022/05/14 06:59:45;;;;;;;7.20;2.58;;;;;;;32.29;24.10;99869.50;5112796;28;20430;-90
2022/05/14 07:02:13;;;;;;;6.68;2.80;;;;;;;32.70;23.49;99873.00;5111406;28;20442;-87
2022/05/14 07:07:22;;;;;;;9.80;2.70;;;;;;;33.21;22.05;99872.31;5112539;28;20101;-87
2022/05/14 07:09:49;;;;;;;6.32;2.67;;;;;;;33.61;22.03;99870.25;5111383;28;20057;-87
2022/05/14 07:12:15;;;;;;;8.73;2.78;;;;;;;33.26;21.76;99859.81;5111119;28;20042;-87
2022/05/14 07:14:43;;;;;;;5.57;2.78;;;;;;;33.02;21.54;99864.03;5111244;28;20031;-87
2022/05/14 07:17:10;;;;;;;6.05;2.83;;;;;;;31.94;22.31;99857.22;5111103;28;20388;-87
2022/05/14 07:19:37;;;;;;;7.10;2.90;;;;;;;29.98;24.25;99858.34;5112031;28;20024;-87
2022/05/14 07:22:03;;;;;;;5.50;2.67;;;;;;;28.23;26.49;99862.53;5111152;28;20043;-89
2022/05/14 07:24:29;;;;;;;6.72;2.90;;;;;;;26.85;29.17;99868.44;5110777;28;20119;-89
2022/05/14 07:26:57;;;;;;;10.60;4.13;;;;;;;26.23;30.79;99873.50;5111201;28;20472;-89
2022/05/14 07:29:24;;;;;;;29.95;12.75;;;;;;;26.08;31.40;99853.81;5110749;28;20373;-88
2022/05/14 07:31:50;;;;;;;20.20;8.73;;;;;;;25.45;32.76;99854.34;5112448;28;20524;-88
2022/05/14 07:34:16;;;;;;;13.60;4.05;;;;;;;25.44;33.65;99858.84;5112046;28;20158;-88
2022/05/14 07:36:57;;;;;;;11.05;4.30;;;;;;;27.78;30.87;99842.84;5111071;28;20380;-88
2022/05/14 07:39:26;;;;;;;4.72;2.80;;;;;;;30.07;27.30;99852.63;5092038;28;20534;-88
2022/05/14 07:41:55;;;;;;;6.38;3.25;;;;;;;31.60;25.34;99850.09;5068985;28;20037;-87
2022/05/14 07:44:25;;;;;;;9.37;3.27;;;;;;;31.81;24.46;99847.22;5068937;28;20036;-87
2022/05/14 07:46:52;;;;;;;6.57;2.78;;;;;;;32.34;23.43;99854.56;5069117;28;20048;-87
2022/05/14 07:49:21;;;;;;;5.28;2.65;;;;;;;31.98;23.69;99845.00;5068192;28;20055;-87
2022/05/14 07:51:46;;;;;;;5.07;2.70;;;;;;;31.02;24.00;99845.09;5051831;28;20086;-87
2022/05/14 07:54:12;;;;;;;5.60;2.60;;;;;;;31.71;23.39;99844.13;5051891;28;20491;-87
2022/05/14 07:56:38;;;;;;;5.30;2.70;;;;;;;31.68;23.51;99842.66;5051546;28;20037;-87
2022/05/14 07:59:04;;;;;;;11.98;3.13;;;;;;;31.76;23.35;99844.34;5068713;28;20036;-86
2022/05/14 08:01:30;;;;;;;7.88;2.58;;;;;;;31.49;23.72;99851.53;5051707;28;20036;-86
2022/05/14 08:03:56;;;;;;;11.07;3.35;;;;;;;30.86;23.09;99854.31;5052122;28;20132;-86
2022/05/14 08:06:22;;;;;;;9.50;3.05;;;;;;;31.00;23.62;99853.34;5051939;28;20474;-87
2022/05/14 08:08:48;;;;;;;5.85;2.53;;;;;;;31.26;23.69;99859.88;5069047;28;20119;-87
2022/05/14 08:11:13;;;;;;;8.65;3.05;;;;;;;30.08;24.58;99856.97;5069180;28;20484;-87
2022/05/14 08:13:40;;;;;;;9.95;3.03;;;;;;;30.00;25.49;99846.41;5103130;28;20040;-87
2022/05/14 08:16:06;;;;;;;5.65;2.67;;;;;;;30.90;24.79;99839.44;5110390;28;20016;-87
2022/05/14 08:18:32;;;;;;;5.75;2.80;;;;;;;30.90;24.65;99838.63;5110608;28;20046;-90
2022/05/14 08:24:29;;;;;;;7.43;3.33;;;;;;;30.14;25.51;99841.97;5110683;28;20062;-89
2022/05/14 08:26:31;;;;;;;7.05;3.90;;;;;;;27.04;27.93;99834.28;5108572;28;20117;-88
2022/05/14 08:28:57;;;;;;;7.53;3.85;;;;;;;25.97;30.21;99841.63;5097998;28;20123;-87
2022/05/14 08:31:22;;;;;;;6.10;3.67;;;;;;;25.34;31.56;99836.81;5091427;28;20036;-89
2022/05/14 08:33:48;;;;;;;7.70;3.22;;;;;;;24.78;32.08;99831.06;5091375;28;20116;-89
2022/05/14 08:36:13;;;;;;;8.50;3.75;;;;;;;24.35;32.31;99834.56;5112858;28;20036;-87
2022/05/14 08:38:39;;;;;;;6.20;3.45;;;;;;;23.81;33.31;99824.00;5095521;28;20055;-87
2022/05/14 08:41:04;;;;;;;6.60;3.55;;;;;;;23.45;34.81;99838.22;5090317;28;20027;-86
2022/05/14 08:43:45;;;;;;;7.68;4.47;;;;;;;22.86;33.96;99827.84;5092017;28;20036;-87
2022/05/14 08:46:15;;;;;;;8.93;4.60;;;;;;;22.13;34.92;99827.63;5075413;28;20027;-91
2022/05/14 08:48:41;;;;;;;8.50;4.55;;;;;;;21.60;35.99;99814.72;5074770;28;20579;-90
2022/05/14 08:51:18;;;;;;;9.15;5.70;;;;;;;21.24;37.37;99832.09;5075331;28;20036;-89
2022/05/14 08:53:47;;;;;;;8.55;4.35;;;;;;;20.91;38.73;99819.97;5075199;28;20036;-88
2022/05/14 08:56:26;;;;;;;10.32;4.95;;;;;;;20.76;39.43;99850.41;5092908;28;20032;-87
2022/05/14 08:59:09;;;;;;;6.55;4.35;;;;;;;20.76;40.38;99839.81;5103221;28;20154;-89
2022/05/14 09:01:40;;;;;;;7.15;4.68;;;;;;;20.89;40.43;99829.84;5094786;28;20027;-88
2022/05/14 09:04:09;;;;;;;10.77;4.78;;;;;;;20.83;41.04;99823.28;5095241;28;20369;-87
2022/05/14 09:06:38;;;;;;;11.65;5.05;;;;;;;21.10;39.70;99827.13;5112189;28;20032;-88
2022/05/14 09:09:05;;;;;;;10.40;5.53;;;;;;;20.99;38.85;99811.38;5095204;28;20027;-89
2022/05/14 09:11:41;;;;;;;7.80;5.13;;;;;;;20.93;40.39;99841.84;5094907;28;20024;-89
2022/05/14 09:14:27;;;;;;;8.20;5.22;;;;;;;20.88;40.33;99844.91;5113449;28;20069;-89
2022/05/14 09:17:14;;;;;;;9.07;5.55;;;;;;;20.90;39.36;99842.13;5114770;28;20027;-87
2022/05/14 09:19:44;;;;;;;9.23;4.80;;;;;;;20.74;39.69;99837.31;5113243;28;20122;-87
2022/05/14 09:22:13;;;;;;;6.97;5.17;;;;;;;20.74;40.47;99852.38;5113328;28;20114;-87
2022/05/14 09:24:51;;;;;;;8.77;4.68;;;;;;;20.63;41.62;99843.53;5112940;28;20080;-88
2022/05/14 09:27:54;;;;;;;9.52;4.50;;;;;;;20.83;42.54;99848.94;5114445;28;20031;-88
2022/05/14 09:30:53;;;;;;;7.88;5.28;;;;;;;21.03;41.23;99832.16;5113140;28;20047;-89
2022/05/14 09:33:38;;;;;;;15.82;5.85;;;;;;;21.10;40.52;99843.03;5057792;28;20123;-88
2022/05/14 09:36:04;;;;;;;8.98;4.50;;;;;;;21.18;40.12;99819.38;5034495;28;20029;-88
2022/05/14 09:38:30;;;;;;;11.35;4.95;;;;;;;21.42;39.80;99840.25;5034156;28;20045;-88
2022/05/14 09:41:08;;;;;;;6.82;4.53;;;;;;;21.32;41.05;99850.81;5033967;28;20607;-88
2022/05/14 09:43:38;;;;;;;11.38;5.13;;;;;;;21.00;40.95;99847.47;5050586;28;20517;-87
2022/05/14 09:46:07;;;;;;;8.40;4.97;;;;;;;20.68;41.87;99838.66;5050938;28;20029;-89
2022/05/14 09:48:48;;;;;;;8.52;4.68;;;;;;;20.37;42.63;99829.00;5033809;28;20055;-89
2022/05/14 09:51:27;;;;;;;7.82;4.82;;;;;;;20.42;42.86;99853.25;5050846;28;20029;-90
2022/05/14 09:53:53;;;;;;;9.80;4.65;;;;;;;20.45;43.37;99850.34;5034004;28;20062;-89
2022/05/14 09:56:43;;;;;;;9.65;4.82;;;;;;;20.56;42.87;99844.16;5033928;28;20071;-88
2022/05/14 09:59:15;;;;;;;7.78;5.60;;;;;;;20.59;42.17;99850.03;5034070;28;20028;-89
2022/05/14 10:01:46;;;;;;;9.52;5.72;;;;;;;20.62;41.54;99851.59;5050500;28;20587;-84
2022/05/14 10:04:59;;;;;;;12.70;5.45;;;;;;;20.88;43.02;99844.06;5034034;28;20036;-89
2022/05/14 10:07:31;;;;;;;7.30;4.90;;;;;;;20.99;40.94;99835.22;4971758;28;20070;-89
2022/05/14 10:09:57;;;;;;;14.00;4.78;;;;;;;20.87;40.82;99834.44;4984137;28;20128;-89
2022/05/14 10:12:36;;;;;;;13.57;5.28;;;;;;;20.66;40.84;99840.63;5030793;28;20164;-90
2022/05/14 10:15:23;;;;;;;8.32;4.65;;;;;;;20.56;41.29;99844.16;5014138;28;20037;-89
2022/05/14 10:18:04;;;;;;;7.57;4.50;;;;;;;20.55;40.93;99838.03;5014135;28;20060;-88
2022/05/14 10:20:39;;;;;;;7.38;4.18;;;;;;;20.66;41.35;99840.63;4971680;28;20039;-90
2022/05/14 10:26:47;;;;;;;9.85;5.03;;;;;;;21.00;40.40;99829.75;4972266;28;20114;-89
2022/05/14 10:29:36;;;;;;;5.88;4.03;;;;;;;21.07;40.53;99830.06;4972358;28;20075;-89
2022/05/14 10:32:08;;;;;;;8.30;4.33;;;;;;;21.03;40.50;99826.03;4975034;28;20042;-89
2022/05/14 10:34:33;;;;;;;9.50;3.90;;;;;;;20.87;39.80;99827.34;4975062;28;20269;-89
2022/05/14 10:37:03;;;;;;;9.00;3.92;;;;;;;20.78;39.46;99822.03;4991360;28;20042;-89
2022/05/14 10:39:41;;;;;;;9.30;3.80;;;;;;;20.77;39.32;99810.56;4972748;28;20043;-88
2022/05/14 10:42:34;;;;;;;10.82;4.10;;;;;;;21.03;40.13;99823.38;4971849;28;20034;-90
2022/05/14 10:45:24;;;;;;;11.75;3.72;;;;;;;21.34;39.93;99816.22;5070366;28;20025;-91
2022/05/14 10:48:30;;;;;;;6.40;4.10;;;;;;;21.34;38.77;99817.06;5070389;28;20141;-91
2022/05/14 10:50:56;;;;;;;9.80;4.75;;;;;;;21.10;37.98;99813.91;5033435;28;20029;-89
2022/05/14 10:53:21;;;;;;;8.32;4.22;;;;;;;20.86;39.10;99817.72;5049968;28;20594;-88
2022/05/14 10:56:07;;;;;;;7.72;4.47;;;;;;;20.76;39.75;99813.34;5049958;28;20083;-89
2022/05/14 10:58:59;;;;;;;10.80;4.68;;;;;;;20.65;39.52;99822.22;5052994;28;20500;-90
2022/05/14 11:01:32;;;;;;;9.07;4.35;;;;;;;20.62;41.15;99812.75;5070038;28;20043;-89
2022/05/14 11:04:10;;;;;;;11.80;5.43;;;;;;;20.63;40.39;99821.50;5053254;28;20036;-89
2022/05/14 11:06:52;;;;;;;9.65;4.28;;;;;;;20.60;40.76;99811.19;5069690;28;20028;-90
2022/05/14 11:09:23;;;;;;;10.43;4.57;;;;;;;20.82;41.05;99820.78;5050456;28;20390;-90
2022/05/14 11:11:55;;;;;;;7.53;4.28;;;;;;;20.91;40.22;99806.75;5053160;28;20028;-90
2022/05/14 11:14:21;;;;;;;10.80;3.67;;;;;;;20.93;40.01;99818.84;5053318;28;20131;-90
2022/05/14 11:16:50;;;;;;;9.65;4.00;;;;;;;20.91;40.35;99804.94;5052735;28;20526;-90
2022/05/14 11:19:28;;;;;;;7.13;3.90;;;;;;;20.92;40.30;99824.28;5070265;28;20491;-90
2022/05/14 11:21:55;;;;;;;8.63;4.20;;;;;;;21.02;38.80;99805.78;5053458;28;20037;-92
2022/05/14 11:24:31;;;;;;;8.18;4.05;;;;;;;21.03;37.92;99807.47;5070140;28;20595;-91
2022/05/14 11:26:58;;;;;;;7.93;3.70;;;;;;;20.89;38.51;99804.22;5062218;28;20553;-92
2022/05/14 11:29:27;;;;;;;13.13;4.13;;;;;;;20.79;38.82;99815.75;5111840;28;20031;-91
2022/05/14 11:32:07;;;;;;;7.03;3.75;;;;;;;20.66;38.71;99810.66;5111486;28;20069;-92
2022/05/14 11:34:33;;;;;;;11.40;3.90;;;;;;;20.61;40.44;99802.28;5111543;28;20061;-90
2022/05/14 11:37:01;;;;;;;11.82;4.00;;;;;;;20.75;40.05;99809.03;5111812;28;20024;-91
2022/05/14 11:39:36;;;;;;;7.47;3.65;;;;;;;20.73;39.72;99790.66;5111797;28;20118;-91
2022/05/14 11:42:27;;;;;;;7.70;3.65;;;;;;;20.73;38.73;99790.66;5111962;28;20165;-91
2022/05/14 11:45:14;;;;;;;6.32;3.70;;;;;;;20.73;40.20;99803.03;5089938;28;20082;-91
2022/05/14 11:48:09;;;;;;;9.43;3.90;;;;;;;20.79;39.15;99797.22;5072929;28;20127;-91
2022/05/14 11:50:47;;;;;;;11.50;4.22;;;;;;;20.76;39.36;99800.94;5073174;28;20123;-91
2022/05/14 11:53:23;;;;;;;7.80;3.25;;;;;;;20.79;39.17;99806.00;5073148;28;20071;-91
2022/05/14 11:55:55;;;;;;;7.05;3.17;;;;;;;20.80;38.66;99790.94;5073236;28;20485;-90
2022/05/14 11:58:52;;;;;;;12.98;4.05;;;;;;;21.02;39.01;99792.53;5073131;28;20119;-91
2022/05/14 12:01:24;;;;;;;10.27;3.38;;;;;;;21.23;38.03;99800.41;5089940;28;20532;-91
2022/05/14 12:03:52;;;;;;;7.13;3.45;;;;;;;21.17;37.10;99793.84;5072917;28;20036;-91